Time;durP1;ratioP1;P1;durP2;ratioP2;P2;SDS_P1;SDS_P2;PMS_P1;PMS_P2;Temp;Humidity;BMP_temperature;BMP_pressure;BME280_temperature;BME280_humidity;BME280_pressure;Samples;Min_cycle;Max_cycle;Signal;HPM_P1;HPM_P2
2023/04/05 00:03:28;;;;;;;4.85;2.60;;;;;;;1.62;70.53;100489.41;12200651;19;20487;-80
2023/04/05 00:07:32;;;;;;;8.57;2.95;;;;;;;1.55;70.10;100483.00;12223606;19;20010;-80
2023/04/05 00:11:34;;;;;;;5.85;2.78;;;;;;;1.48;71.20;100474.69;12202371;19;20006;-80
2023/04/05 00:15:36;;;;;;;5.25;2.50;;;;;;;1.40;71.16;100466.59;12223645;19;20073;-80
2023/04/05 00:19:42;;;;;;;6.03;2.70;;;;;;;1.37;71.65;100469.66;12225826;19;20018;-80
2023/04/05 00:23:43;;;;;;;7.78;3.00;;;;;;;1.34;71.09;100459.13;12204378;19;20010;-80
2023/04/05 00:27:45;;;;;;;6.15;2.40;;;;;;;1.31;71.66;100460.31;12220680;19;20080;-80
2023/04/05 00:31:47;;;;;;;7.97;2.30;;;;;;;1.29;71.69;100454.22;12224068;19;20003;-80
2023/04/05 00:35:49;;;;;;;3.92;2.38;;;;;;;1.28;71.91;100463.41;12198300;19;20087;-80
2023/04/05 00:39:52;;;;;;;3.33;2.35;;;;;;;1.25;71.63;100452.88;12223235;19;20013;-80
2023/04/05 00:43:55;;;;;;;6.25;2.47;;;;;;;1.24;72.77;100453.88;12220094;19;20011;-80
2023/04/05 00:47:57;;;;;;;3.80;2.30;;;;;;;1.25;72.59;100454.72;12199727;19;20011;-80
2023/04/05 00:52:00;;;;;;;4.72;2.70;;;;;;;1.26;73.01;100448.28;12220517;19;20003;-80
2023/04/05 00:56:02;;;;;;;3.70;2.10;;;;;;;1.28;72.95;100444.38;12217501;19;20006;-80
2023/04/05 01:00:08;;;;;;;;;;;;;;;1.32;74.07;100448.44;12202961;19;20007;-79
2023/04/05 01:04:12;;;;;;;6.28;2.47;;;;;;;1.34;73.16;100446.41;12221221;19;19965;-80
2023/04/05 01:08:24;;;;;;;5.50;2.47;;;;;;;1.34;73.90;100442.84;12222527;19;20010;-81
2023/04/05 01:12:32;;;;;;;5.10;2.50;;;;;;;1.31;74.02;100435.88;12197205;19;20780;-80
2023/04/05 01:16:33;;;;;;;7.07;2.70;;;;;;;1.29;74.39;100428.94;12220411;19;20904;-80
2023/04/05 01:20:51;;;;;;;7.70;3.92;;;;;;;1.26;75.21;100435.56;12201117;19;20070;-80
2023/04/05 01:25:18;;;;;;;7.13;3.38;;;;;;;1.21;76.13;100427.09;12217601;19;20073;-80
2023/04/05 01:29:45;;;;;;;6.45;3.40;;;;;;;1.11;76.03;100421.84;12222540;19;20096;-80
2023/04/05 01:33:57;;;;;;;4.93;2.75;;;;;;;1.03;76.40;100424.59;12213474;19;19999;-80
2023/04/05 01:38:02;;;;;;;4.68;2.50;;;;;;;0.98;75.90;100416.13;12243202;19;20011;-80
2023/04/05 01:42:04;;;;;;;3.80;2.58;;;;;;;0.91;76.39;100418.66;12200186;19;20013;-80
2023/04/05 01:46:06;;;;;;;5.57;2.83;;;;;;;0.82;76.62;100406.13;12226111;19;20010;-80
2023/04/05 01:50:08;;;;;;;12.18;2.80;;;;;;;0.76;77.53;100401.41;12235888;19;20014;-80
2023/04/05 01:54:10;;;;;;;5.03;2.30;;;;;;;0.71;77.65;100409.19;12198685;19;20010;-80
2023/04/05 01:58:12;;;;;;;6.10;2.97;;;;;;;0.65;78.44;100404.47;12219754;19;20275;-80
2023/04/05 02:02:14;;;;;;;5.65;2.58;;;;;;;0.60;78.42;100401.44;12220885;19;19999;-80
2023/04/05 02:06:16;;;;;;;4.97;2.67;;;;;;;0.53;78.61;100405.81;12196354;19;20066;-79
2023/04/05 02:10:18;;;;;;;4.78;3.08;;;;;;;0.48;79.16;100402.75;12217885;19;20048;-80
2023/04/05 02:14:20;;;;;;;;;;;;;;;0.43;79.58;100403.28;12214142;19;20019;-80
2023/04/05 02:18:28;;;;;;;4.60;3.08;;;;;;;0.38;79.27;100403.78;12190277;19;19914;-80
2023/04/05 02:22:30;;;;;;;6.45;3.72;;;;;;;0.34;79.95;100394.31;12207835;19;20479;-79
2023/04/05 02:26:32;;;;;;;4.95;2.72;;;;;;;0.30;80.48;100401.09;12211626;19;20010;-80
2023/04/05 02:30:34;;;;;;;5.38;3.10;;;;;;;0.31;80.21;100399.22;12227854;19;20002;-81
2023/04/05 02:34:37;;;;;;;5.20;3.20;;;;;;;0.27;79.84;100396.00;12228085;19;20014;-80
2023/04/05 02:38:39;;;;;;;;;;;;;;;0.21;81.06;100397.53;12204903;19;20514;-79
2023/04/05 02:42:41;;;;;;;5.07;3.20;;;;;;;0.19;80.16;100393.28;12231730;19;19915;-79
2023/04/05 02:46:43;;;;;;;5.55;3.30;;;;;;;0.15;80.19;100392.78;12232978;19;20119;-79
2023/04/05 02:50:49;;;;;;;7.55;2.97;;;;;;;0.14;80.61;100399.19;12241031;19;20037;-80
2023/04/05 02:54:51;;;;;;;8.63;3.40;;;;;;;0.15;80.59;100391.91;12272956;19;19991;-80
2023/04/05 02:58:59;;;;;;;5.07;3.08;;;;;;;0.13;80.64;100393.97;12245900;19;20051;-80
2023/04/05 03:03:01;;;;;;;7.30;2.92;;;;;;;0.12;81.30;100395.84;12208260;19;20003;-80
2023/04/05 03:07:03;;;;;;;5.37;3.07;;;;;;;0.10;81.16;100394.31;12232982;19;20010;-80
2023/04/05 03:11:10;;;;;;;4.93;2.55;;;;;;;0.07;81.18;100386.50;12229013;19;20018;-80
2023/04/05 03:15:14;;;;;;;3.90;2.45;;;;;;;0.03;80.59;100391.44;12203604;19;20022;-80
2023/04/05 03:19:21;;;;;;;6.57;3.22;;;;;;;0.02;81.68;100384.28;12229307;19;20036;-80
2023/04/05 03:23:28;;;;;;;6.47;3.47;;;;;;;0.01;80.95;100379.06;12226227;19;19999;-80
2023/04/05 03:27:31;;;;;;;5.47;3.05;;;;;;;-0.02;80.83;100370.25;12200035;19;20094;-80
2023/04/05 03:31:37;;;;;;;7.63;3.60;;;;;;;-0.02;81.50;100372.94;12222503;19;20043;-79
2023/04/05 03:35:43;;;;;;;5.50;3.92;;;;;;;-0.04;81.41;100374.97;12200552;19;20035;-80
2023/04/05 03:39:45;;;;;;;9.73;3.90;;;;;;;-0.08;81.35;100370.91;12225537;19;20031;-79
2023/04/05 03:43:48;;;;;;;;;;;;;;;-0.13;82.83;100370.56;12221512;19;20010;-79
2023/04/05 03:47:53;;;;;;;6.97;3.10;;;;;;;-0.19;81.67;100367.66;12201294;19;20712;-80
2023/04/05 03:51:55;;;;;;;;;;;;;;;-0.22;82.57;100363.44;12222468;19;20026;-79
2023/04/05 03:55:57;;;;;;;6.03;2.95;;;;;;;-0.24;82.21;100370.88;12216584;19;19918;-79
2023/04/05 04:00:16;;;;;;;5.78;2.95;;;;;;;-0.25;81.98;100372.72;12199030;19;20007;-79
2023/04/05 04:04:28;;;;;;;5.30;3.05;;;;;;;-0.24;82.32;100360.03;12217010;19;20027;-79
2023/04/05 04:08:30;;;;;;;5.27;3.07;;;;;;;-0.24;82.64;100363.63;12218604;19;20010;-79
2023/04/05 04:12:33;;;;;;;;;;;;;;;-0.26;82.85;100352.09;12196706;19;20016;-79
2023/04/05 04:16:35;;;;;;;5.40;2.88;;;;;;;-0.26;82.35;100351.25;12211660;19;19918;-79
2023/04/05 04:20:55;;;;;;;6.68;2.88;;;;;;;-0.26;82.33;100351.25;12190523;19;20007;-78
2023/04/05 04:25:11;;;;;;;5.53;3.13;;;;;;;-0.26;82.22;100348.53;12209413;19;20006;-79
2023/04/05 04:29:34;;;;;;;5.75;3.72;;;;;;;-0.29;82.18;100354.28;12215098;19;20042;-79
2023/04/05 04:34:06;;;;;;;6.18;3.20;;;;;;;-0.30;82.85;100360.69;12112932;19;2004361;-79
2023/04/05 04:38:33;;;;;;;6.47;3.25;;;;;;;-0.35;83.13;100363.06;12213098;19;20759;-79
2023/04/05 04:42:57;;;;;;;5.45;3.40;;;;;;;-0.40;82.14;100360.00;12187269;19;20017;-79
2023/04/05 04:47:16;;;;;;;7.97;3.55;;;;;;;-0.43;81.58;100352.22;12211985;19;20010;-78
2023/04/05 04:51:50;;;;;;;7.72;3.40;;;;;;;-0.44;81.16;100364.06;12189179;19;20063;-79
2023/04/05 04:55:56;;;;;;;8.05;3.53;;;;;;;-0.50;80.68;100361.00;12213627;19;20715;-79
2023/04/05 05:00:06;;;;;;;5.57;3.03;;;;;;;-0.60;81.02;100364.84;12204084;19;20002;-79
2023/04/05 05:04:08;;;;;;;7.47;3.50;;;;;;;-0.64;81.60;100371.63;12245542;19;20011;-80
2023/04/05 05:08:13;;;;;;;8.82;3.70;;;;;;;-0.63;82.56;100376.84;12242317;19;20015;-78
2023/04/05 05:12:16;;;;;;;8.93;4.03;;;;;;;-0.63;82.85;100376.84;12209037;19;20010;-78
2023/04/05 05:16:20;;;;;;;10.93;4.10;;;;;;;-0.64;84.05;100374.31;12208607;19;20069;-78
2023/04/05 05:20:22;;;;;;;7.00;3.70;;;;;;;-0.65;85.11;100375.34;12211175;19;20009;-79
2023/04/05 05:24:25;;;;;;;10.35;3.35;;;;;;;-0.65;85.45;100378.88;12196879;19;20011;-80
2023/04/05 05:28:27;;;;;;;8.00;4.38;;;;;;;-0.67;85.48;100386.31;12221012;19;20006;-79
2023/04/05 05:32:29;;;;;;;8.55;4.20;;;;;;;-0.69;85.67;100377.50;12221698;19;20002;-79
2023/04/05 05:36:33;;;;;;;11.30;5.03;;;;;;;-0.67;84.98;100378.19;12208563;19;20018;-78
2023/04/05 05:40:35;;;;;;;10.05;4.15;;;;;;;-0.70;86.42;100371.25;12236117;19;19999;-79
2023/04/05 05:44:37;;;;;;;11.98;4.20;;;;;;;-0.65;87.31;100368.06;12210720;19;20342;-79
2023/04/05 05:48:40;;;;;;;9.70;4.30;;;;;;;-0.61;87.98;100374.84;12243117;19;20010;-78
2023/04/05 05:52:42;;;;;;;7.22;3.58;;;;;;;-0.54;88.28;100377.72;12242393;19;20010;-79
2023/04/05 05:56:44;;;;;;;7.82;4.25;;;;;;;-0.51;87.46;100385.50;12222822;19;20049;-78
2023/04/05 06:00:46;;;;;;;9.00;3.50;;;;;;;-0.47;87.65;100379.63;12254403;19;19999;-80
2023/04/05 06:04:51;;;;;;;5.93;4.05;;;;;;;-0.38;87.69;100385.06;12257303;19;20009;-79
2023/04/05 06:08:53;;;;;;;12.40;4.67;;;;;;;-0.30;87.01;100394.06;12237252;19;20026;-79
2023/04/05 06:12:55;;;;;;;10.98;4.65;;;;;;;-0.19;86.51;100382.06;12260429;19;20031;-79
2023/04/05 06:16:57;;;;;;;8.10;4.10;;;;;;;-0.09;86.26;100384.59;12252163;19;20007;-78
2023/04/05 06:20:59;;;;;;;8.43;3.63;;;;;;;0.00;85.58;100383.63;12195469;19;20510;-78
2023/04/05 06:25:01;;;;;;;9.93;4.53;;;;;;;0.17;84.36;100390.75;12199776;19;20320;-78
2023/04/05 06:29:05;;;;;;;5.68;3.70;;;;;;;0.35;83.29;100384.31;12174806;19;20786;-78
2023/04/05 06:33:07;;;;;;;8.15;4.28;;;;;;;0.56;82.27;100383.78;12191213;19;20026;-77
2023/04/05 06:37:09;;;;;;;6.90;3.10;;;;;;;0.80;80.91;100385.63;12218103;19;20022;-77
2023/04/05 06:41:11;;;;;;;4.40;2.92;;;;;;;1.08;78.76;100386.06;12212903;19;20030;-78
2023/04/05 06:45:17;;;;;;;6.05;3.63;;;;;;;1.31;76.63;100378.88;12198065;19;20391;-78
2023/04/05 06:49:20;;;;;;;7.50;4.00;;;;;;;1.55;75.10;100382.50;12221883;19;20043;-77
2023/04/05 06:53:26;;;;;;;10.30;3.53;;;;;;;1.80;74.79;100383.22;12206020;19;20017;-77
2023/04/05 06:57:28;;;;;;;6.13;4.10;;;;;;;2.06;73.89;100382.88;12183495;19;20103;-77
2023/04/05 07:01:30;;;;;;;6.57;4.20;;;;;;;2.21;70.69;100380.22;12208147;19;20028;-77
2023/04/05 07:05:34;;;;;;;7.35;3.83;;;;;;;2.42;70.60;100383.09;12188972;19;20007;-77
2023/04/05 07:09:36;;;;;;;7.45;4.05;;;;;;;2.65;69.94;100384.97;12207578;19;20006;-78
2023/04/05 07:13:40;;;;;;;7.80;3.08;;;;;;;2.84;67.58;100375.41;12204097;19;20354;-78
2023/04/05 07:17:44;;;;;;;5.93;2.92;;;;;;;3.06;67.09;100377.19;12182848;19;20083;-77
2023/04/05 07:21:46;;;;;;;6.13;3.50;;;;;;;3.25;65.30;100383.97;12208529;19;20014;-77
2023/04/05 07:25:48;;;;;;;6.28;3.05;;;;;;;3.47;64.48;100387.63;12204702;19;20395;-77
2023/04/05 07:29:49;;;;;;;7.63;3.10;;;;;;;3.67;64.15;100385.16;12181087;19;20426;-77
2023/04/05 07:33:52;;;;;;;5.82;3.45;;;;;;;3.79;61.14;100377.31;12204625;19;20550;-77
2023/04/05 07:37:54;;;;;;;6.93;3.40;;;;;;;3.97;60.63;100376.91;12201640;19;20145;-78
2023/04/05 07:41:56;;;;;;;5.50;3.17;;;;;;;4.21;60.05;100379.25;12179898;19;20045;-78
2023/04/05 07:46:01;;;;;;;5.80;3.65;;;;;;;4.47;60.18;100383.28;12204166;19;21275;-78
2023/04/05 07:50:05;;;;;;;5.60;3.00;;;;;;;4.71;59.97;100379.28;12207358;19;20368;-77
2023/04/05 07:54:08;;;;;;;5.05;3.08;;;;;;;4.91;58.07;100379.44;12187924;19;20011;-78
2023/04/05 07:58:10;;;;;;;6.27;3.10;;;;;;;5.12;58.02;100375.81;12205829;19;20011;-78
2023/04/05 08:02:12;;;;;;;5.32;3.10;;;;;;;5.24;57.15;100374.19;12213789;19;20014;-78
2023/04/05 08:06:18;;;;;;;7.07;3.50;;;;;;;5.27;56.09;100378.41;12193671;19;20002;-78
2023/04/05 08:10:24;;;;;;;4.65;3.10;;;;;;;5.46;56.59;100373.03;12223838;19;20018;-78
2023/04/05 08:14:28;;;;;;;8.30;3.60;;;;;;;5.66;55.16;100378.59;12217951;19;20654;-78
2023/04/05 08:18:30;;;;;;;5.27;3.80;;;;;;;5.60;52.87;100382.16;12194364;19;20030;-78
2023/04/05 08:22:32;;;;;;;5.60;3.00;;;;;;;5.83;53.94;100373.63;12211343;19;20018;-78
2023/04/05 08:26:34;;;;;;;5.72;3.10;;;;;;;6.04;52.40;100378.16;12189987;19;20007;-78
2023/04/05 08:30:38;;;;;;;5.75;3.28;;;;;;;6.35;53.13;100374.81;12213772;19;19998;-78
2023/04/05 08:34:42;;;;;;;5.13;3.30;;;;;;;6.57;51.70;100375.50;12211998;19;20014;-78
2023/04/05 08:38:46;;;;;;;6.60;3.22;;;;;;;6.38;47.33;100376.31;12194911;19;20006;-78
2023/04/05 08:42:56;;;;;;;4.28;2.70;;;;;;;6.18;46.96;100362.59;12210951;19;20030;-77
2023/04/05 08:47:03;;;;;;;11.23;5.50;;;;;;;6.29;47.85;100364.72;12250493;19;20002;-78
2023/04/05 08:51:08;;;;;;;5.43;3.20;;;;;;;6.52;48.35;100363.47;12244235;19;20027;-77
2023/04/05 08:55:09;;;;;;;6.25;2.95;;;;;;;6.76;47.80;100362.84;12228385;19;20006;-78
2023/04/05 08:59:14;;;;;;;6.35;3.13;;;;;;;6.97;46.50;100366.41;12210949;19;20031;-78
2023/04/05 09:03:28;;;;;;;8.60;3.50;;;;;;;7.14;47.73;100370.41;12194263;19;20011;-78
2023/04/05 09:07:37;;;;;;;6.10;3.03;;;;;;;7.51;46.54;100360.56;12217330;19;20006;-77
2023/04/05 09:11:39;;;;;;;4.63;2.90;;;;;;;7.63;44.27;100357.16;12197021;19;20006;-78
2023/04/05 09:15:45;;;;;;;6.97;3.20;;;;;;;7.29;43.62;100362.75;12212609;19;20010;-78
2023/04/05 09:19:49;;;;;;;5.97;3.05;;;;;;;7.48;44.10;100361.00;12213792;19;20172;-78
2023/04/05 09:23:53;;;;;;;5.90;3.08;;;;;;;7.60;43.23;100363.91;12195330;19;20004;-78
2023/04/05 09:27:57;;;;;;;5.43;3.38;;;;;;;7.63;42.90;100360.75;12210148;19;20022;-79
2023/04/05 09:32:01;;;;;;;4.57;3.08;;;;;;;7.77;43.38;100356.06;12218243;19;20069;-78
2023/04/05 09:36:03;;;;;;;5.38;2.55;;;;;;;8.02;41.47;100339.66;12194218;19;20041;-78
2023/04/05 09:40:06;;;;;;;5.45;2.75;;;;;;;8.34;40.46;100342.41;12214928;19;20503;-78
2023/04/05 09:44:07;;;;;;;6.35;3.20;;;;;;;8.55;41.33;100344.81;12190187;19;20011;-78
2023/04/05 09:48:12;;;;;;;5.72;3.10;;;;;;;8.70;40.64;100338.16;12168580;19;20083;-77
2023/04/05 09:52:22;;;;;;;5.72;3.08;;;;;;;8.88;40.21;100344.53;12193481;19;20021;-77
2023/04/05 09:56:26;;;;;;;5.13;2.53;;;;;;;9.00;39.87;100339.13;12192863;19;20011;-78
2023/04/05 10:00:31;;;;;;;5.10;2.65;;;;;;;8.96;39.81;100348.91;12172302;19;20074;-78
2023/04/05 10:04:47;;;;;;;8.10;2.60;;;;;;;9.27;38.37;100347.09;12193894;19;20729;-78
2023/04/05 10:08:50;;;;;;;5.93;2.80;;;;;;;9.07;36.70;100342.66;12170750;19;20018;-78
2023/04/05 10:12:56;;;;;;;4.88;2.45;;;;;;;9.03;37.76;100341.41;12195752;19;20009;-78
2023/04/05 10:17:18;;;;;;;6.17;3.13;;;;;;;9.41;37.40;100337.63;12191452;19;20479;-77
2023/04/05 10:21:25;;;;;;;4.00;2.72;;;;;;;9.64;37.12;100336.94;12176453;19;20279;-78
2023/04/05 10:25:48;;;;;;;6.38;2.60;;;;;;;9.85;37.16;100332.03;12191130;19;20003;-77
2023/04/05 10:30:03;;;;;;;4.93;2.60;;;;;;;9.74;35.74;100331.72;12173473;19;20026;-78
2023/04/05 10:34:20;;;;;;;7.15;2.30;;;;;;;9.63;35.79;100312.41;12190719;19;20006;-77
2023/04/05 10:38:27;;;;;;;7.57;2.70;;;;;;;9.85;34.97;100316.34;12192669;19;20006;-78
2023/04/05 10:42:40;;;;;;;4.45;2.72;;;;;;;10.02;35.21;100300.84;12169658;19;20031;-78
2023/04/05 10:46:44;;;;;;;5.78;2.50;;;;;;;10.40;35.55;100302.41;12209537;19;20002;-77
2023/04/05 10:50:47;;;;;;;4.60;2.88;;;;;;;10.51;34.92;100292.50;12221903;19;20045;-77
2023/04/05 10:54:51;;;;;;;6.10;2.72;;;;;;;10.75;35.69;100292.50;12209811;19;20021;-78
2023/04/05 10:58:55;;;;;;;3.90;2.47;;;;;;;10.92;34.33;100291.56;12213939;19;20050;-78
2023/04/05 11:02:57;;;;;;;6.55;2.47;;;;;;;11.09;34.05;100290.81;12183298;19;20020;-78
2023/04/05 11:07:16;;;;;;;6.20;2.47;;;;;;;11.26;32.18;100294.50;12209248;19;20027;-79
2023/04/05 11:11:21;;;;;;;4.32;2.22;;;;;;;11.29;32.35;100288.50;12207462;19;20256;-78
2023/04/05 11:15:28;;;;;;;3.58;2.30;;;;;;;11.41;32.25;100285.72;12181729;19;20356;-78
2023/04/05 11:19:47;;;;;;;8.75;2.70;;;;;;;11.27;31.91;100279.63;12203184;19;20021;-78
2023/04/05 11:23:58;;;;;;;4.45;2.20;;;;;;;11.39;32.59;100283.22;12186621;19;20020;-77
2023/04/05 11:28:00;;;;;;;5.55;2.45;;;;;;;11.55;32.18;100281.59;12203166;19;20011;-78
2023/04/05 11:32:11;;;;;;;5.10;2.60;;;;;;;11.48;30.95;100286.44;12209167;19;20011;-77
2023/04/05 11:36:27;;;;;;;4.70;2.75;;;;;;;11.26;31.85;100271.59;12186264;19;20497;-78
2023/04/05 11:40:35;;;;;;;3.63;2.25;;;;;;;11.26;30.18;100269.66;12211144;19;20013;-78
2023/04/05 11:44:46;;;;;;;3.42;2.30;;;;;;;11.36;30.10;100261.63;12181027;19;20010;-78
2023/04/05 11:48:49;;;;;;;6.47;2.40;;;;;;;11.97;30.06;100259.25;12189835;19;20002;-77
2023/04/05 11:53:11;;;;;;;4.88;2.40;;;;;;;12.77;29.98;100255.31;12208009;19;20007;-78
2023/04/05 11:57:22;;;;;;;4.88;2.63;;;;;;;13.60;30.20;100249.00;12196526;19;20007;-79
2023/04/05 12:01:24;;;;;;;5.35;2.90;;;;;;;14.45;27.44;100236.22;12248255;19;20003;-79
2023/04/05 12:05:26;;;;;;;3.35;2.55;;;;;;;14.82;26.33;100241.81;12245452;19;20010;-79
2023/04/05 12:09:28;;;;;;;4.15;2.85;;;;;;;14.68;27.21;100237.00;12213171;19;20459;-81
2023/04/05 12:13:32;;;;;;;4.10;2.45;;;;;;;14.82;27.33;100230.72;12224724;19;20027;-78
2023/04/05 12:17:46;;;;;;;4.32;2.28;;;;;;;15.52;26.75;100227.72;12203501;19;20504;-78
2023/04/05 12:21:49;;;;;;;3.17;2.30;;;;;;;16.37;27.03;100232.91;12228790;19;20036;-78
2023/04/05 12:25:55;;;;;;;4.65;2.42;;;;;;;16.78;24.33;100219.81;12220380;19;20010;-78
2023/04/05 12:30:13;;;;;;;5.32;3.58;;;;;;;16.48;24.46;100217.88;12198364;19;20388;-79
2023/04/05 12:34:23;;;;;;;3.92;2.28;;;;;;;16.79;25.00;100215.09;12221052;19;20002;-79
2023/04/05 12:38:28;;;;;;;3.47;2.63;;;;;;;16.91;24.74;100206.44;12213047;19;20023;-80
2023/04/05 12:42:34;;;;;;;6.50;3.13;;;;;;;16.90;23.37;100202.00;12196886;19;20001;-79
2023/04/05 12:46:44;;;;;;;4.15;2.80;;;;;;;16.96;22.96;100196.13;12206513;19;20448;-79
2023/04/05 12:50:55;;;;;;;6.90;3.05;;;;;;;16.75;22.63;100195.31;12195399;19;20475;-81
2023/04/05 12:54:56;;;;;;;4.22;2.42;;;;;;;16.76;23.91;100194.22;12214224;19;20006;-79
2023/04/05 12:58:58;;;;;;;5.60;3.00;;;;;;;17.16;22.59;100183.22;12215605;19;20006;-78
2023/04/05 13:03:00;;;;;;;4.60;2.83;;;;;;;17.36;23.70;100177.56;12200554;19;20019;-79
2023/04/05 13:07:02;;;;;;;7.78;3.13;;;;;;;17.82;22.08;100179.28;12216194;19;20021;-80
2023/04/05 13:11:04;;;;;;;5.20;2.97;;;;;;;18.63;21.45;100169.41;12227117;19;20015;-80
2023/04/05 13:15:06;;;;;;;5.77;2.93;;;;;;;19.04;21.15;100166.22;12197826;19;20027;-79
2023/04/05 13:19:08;;;;;;;;;;;;;;;19.24;20.97;100165.94;12215940;19;20013;-80
2023/04/05 13:23:11;;;;;;;5.55;2.65;;;;;;;19.63;20.83;100155.63;12219320;19;20020;-80
2023/04/05 13:27:13;;;;;;;6.80;3.38;;;;;;;20.00;20.16;100152.03;12192805;19;20006;-80
2023/04/05 13:31:15;;;;;;;6.28;3.22;;;;;;;20.05;20.25;100151.94;12217717;19;20495;-80
2023/04/05 13:35:18;;;;;;;5.55;2.92;;;;;;;19.87;19.42;100145.25;12226638;19;20006;-80
2023/04/05 13:39:20;;;;;;;;;;;;;;;19.66;20.12;100149.47;12206208;19;20098;-82
2023/04/05 13:43:22;;;;;;;4.80;2.90;;;;;;;19.75;19.20;100140.13;12207193;19;19911;-81
2023/04/05 13:47:24;;;;;;;5.90;2.90;;;;;;;18.96;20.43;100142.56;12204393;19;20367;-80
2023/04/05 13:51:30;;;;;;;6.50;3.63;;;;;;;19.40;19.46;100132.22;12190590;19;20002;-80
2023/04/05 13:55:32;;;;;;;6.38;2.70;;;;;;;19.94;19.65;100137.28;12209805;19;20010;-79
2023/04/05 13:59:33;;;;;;;5.13;3.42;;;;;;;20.38;19.69;100130.38;12193583;19;21314;-79
2023/04/05 14:03:36;;;;;;;;;;;;;;;20.67;19.64;100121.75;12216581;19;20006;-80
2023/04/05 14:07:40;;;;;;;3.97;2.58;;;;;;;20.91;19.44;100121.56;12214842;19;20475;-80
2023/04/05 14:11:42;;;;;;;3.90;2.83;;;;;;;19.74;19.89;100110.47;12195478;19;20011;-79
2023/04/05 14:15:45;;;;;;;7.47;2.97;;;;;;;17.48;21.21;100104.81;12217711;19;20014;-78
2023/04/05 14:19:47;;;;;;;7.83;3.07;;;;;;;16.51;22.21;100110.75;12214212;19;20050;-79
2023/04/05 14:23:55;;;;;;;6.40;3.22;;;;;;;15.61;22.25;100105.78;12201932;19;20070;-80
2023/04/05 14:28:00;;;;;;;4.72;2.95;;;;;;;14.54;23.34;100100.72;12225019;19;20033;-78
2023/04/05 14:32:17;;;;;;;5.47;2.80;;;;;;;14.07;24.31;100105.13;12271145;19;20002;-81
2023/04/05 14:36:22;;;;;;;5.30;2.90;;;;;;;13.48;24.75;100104.34;12243841;19;20753;-80
2023/04/05 14:40:24;;;;;;;5.28;3.28;;;;;;;13.26;24.91;100102.44;12232365;19;21199;-79
2023/04/05 14:44:26;;;;;;;7.53;3.00;;;;;;;13.51;24.80;100087.22;12226749;19;20031;-80
2023/04/05 14:48:30;;;;;;;7.30;3.90;;;;;;;14.00;25.14;100085.09;12202981;19;20049;-78
2023/04/05 14:52:32;;;;;;;5.30;2.70;;;;;;;14.78;23.27;100084.47;12228416;19;20003;-80
2023/04/05 14:56:34;;;;;;;5.57;3.33;;;;;;;15.48;23.94;100079.41;12203727;19;20010;-79
2023/04/05 15:00:36;;;;;;;4.88;3.10;;;;;;;15.62;23.66;100072.19;12226033;19;20060;-78
2023/04/05 15:04:40;;;;;;;3.13;2.77;;;;;;;15.61;23.84;100067.72;12223877;19;20433;-79
2023/04/05 15:08:41;;;;;;;5.95;3.10;;;;;;;15.74;22.67;100065.56;12209740;19;20341;-79
2023/04/05 15:12:43;;;;;;;4.93;3.42;;;;;;;14.99;23.73;100071.50;12224979;19;20054;-78
2023/04/05 15:16:45;;;;;;;4.88;3.13;;;;;;;14.51;25.14;100065.19;12229887;19;20107;-78
2023/04/05 15:20:47;;;;;;;4.73;2.97;;;;;;;14.01;25.29;100058.22;12210635;19;20065;-79
2023/04/05 15:24:49;;;;;;;6.33;2.73;;;;;;;13.73;25.43;100056.66;12231897;19;20022;-79
2023/04/05 15:28:52;;;;;;;6.55;3.03;;;;;;;13.32;25.20;100050.75;12265024;19;20015;-78
2023/04/05 15:32:54;;;;;;;;;;;;;;;13.09;25.73;100054.66;12228831;19;20018;-78
2023/04/05 15:36:56;;;;;;;6.47;2.78;;;;;;;12.85;25.57;100054.09;12242042;19;19967;-79
2023/04/05 15:40:58;;;;;;;4.72;2.83;;;;;;;12.82;25.36;100052.69;12237870;19;20014;-79
2023/04/05 15:44:59;;;;;;;5.07;2.38;;;;;;;12.53;25.62;100049.31;12215074;19;20014;-78
2023/04/05 15:49:01;;;;;;;5.45;2.78;;;;;;;12.64;25.85;100045.56;12248566;19;20030;-78
2023/04/05 15:53:03;;;;;;;4.97;2.75;;;;;;;13.01;25.61;100039.34;12229001;19;20064;-79
2023/04/05 15:57:05;;;;;;;5.30;2.83;;;;;;;12.72;25.86;100049.78;12205754;19;20010;-80
2023/04/05 16:01:07;;;;;;;4.78;2.97;;;;;;;12.27;25.59;100048.13;12219155;19;20018;-78
2023/04/05 16:05:10;;;;;;;3.40;2.13;;;;;;;12.26;25.77;100043.69;12218717;19;20041;-79
2023/04/05 16:09:12;;;;;;;4.50;2.77;;;;;;;12.38;26.19;100047.16;12198660;19;20570;-78
2023/04/05 16:13:15;;;;;;;3.85;2.80;;;;;;;12.70;26.42;100050.06;12214978;19;20384;-78
2023/04/05 16:17:18;;;;;;;;;;;;;;;13.35;25.37;100039.16;12217087;19;20018;-78
2023/04/05 16:21:20;;;;;;;4.70;2.97;;;;;;;13.26;25.59;100040.72;12193662;19;19911;-78
2023/04/05 16:25:21;;;;;;;8.35;3.00;;;;;;;13.57;25.26;100041.84;12222913;19;20003;-78
2023/04/05 16:29:23;;;;;;;5.75;2.83;;;;;;;14.30;24.56;100044.84;12230488;19;20080;-79
2023/04/05 16:33:25;;;;;;;5.05;2.80;;;;;;;14.89;24.47;100040.97;12206002;19;20069;-78
2023/04/05 16:37:27;;;;;;;6.20;3.00;;;;;;;15.09;24.46;100034.66;12230152;19;20057;-79
2023/04/05 16:41:30;;;;;;;8.65;4.15;;;;;;;15.53;24.23;100034.13;12230867;19;20034;-79
2023/04/05 16:45:34;;;;;;;4.30;2.63;;;;;;;15.83;24.09;100034.16;12224185;19;20039;-79
2023/04/05 16:49:36;;;;;;;6.28;2.90;;;;;;;15.28;23.89;100033.00;12256084;19;19999;-79
2023/04/05 16:53:38;;;;;;;6.18;2.80;;;;;;;14.13;24.20;100026.47;12229913;19;20003;-78
2023/04/05 16:57:41;;;;;;;5.22;2.70;;;;;;;13.25;24.23;100028.81;12257006;19;19998;-78
2023/04/05 17:01:42;;;;;;;;;;;;;;;12.60;25.38;100019.53;12258495;19;20003;-78
2023/04/05 17:05:45;;;;;;;4.40;2.70;;;;;;;12.23;25.52;100027.63;12215860;19;19947;-80
2023/04/05 17:09:47;;;;;;;5.63;2.43;;;;;;;12.00;26.47;100028.69;12238797;19;20014;-80
2023/04/05 17:13:48;;;;;;;6.57;2.80;;;;;;;11.84;27.65;100033.94;12233447;19;20103;-80
2023/04/05 17:17:50;;;;;;;5.18;2.95;;;;;;;11.60;27.68;100026.91;12216412;19;20010;-79
2023/04/05 17:21:52;;;;;;;6.35;2.90;;;;;;;11.36;26.92;100032.63;12231103;19;20018;-80
2023/04/05 17:25:54;;;;;;;4.47;2.55;;;;;;;11.24;26.99;100026.31;12228910;19;20511;-80
2023/04/05 17:29:57;;;;;;;8.55;2.83;;;;;;;11.16;27.72;100023.97;12212046;19;20089;-80
2023/04/05 17:34:00;;;;;;;5.57;2.67;;;;;;;11.28;26.80;100032.19;12230790;19;20002;-80
2023/04/05 17:38:05;;;;;;;4.85;2.22;;;;;;;11.59;28.18;100028.00;12225307;19;20014;-79
2023/04/05 17:42:07;;;;;;;3.35;1.83;;;;;;;11.68;29.67;100036.72;12189845;19;20070;-79
2023/04/05 17:46:13;;;;;;;5.85;2.58;;;;;;;11.23;29.60;100037.59;12214950;19;20091;-80
2023/04/05 17:50:15;;;;;;;4.15;2.22;;;;;;;10.51;31.01;100038.16;12219676;19;20446;-79
2023/04/05 17:54:17;;;;;;;3.17;2.00;;;;;;;9.90;32.16;100041.19;12194626;19;20006;-79
2023/04/05 17:58:22;;;;;;;5.85;2.95;;;;;;;9.39;33.32;100041.88;12226580;19;20025;-79
2023/04/05 18:02:24;;;;;;;2.45;1.65;;;;;;;8.94;34.22;100045.13;12234134;19;20418;-79
2023/04/05 18:06:26;;;;;;;2.97;1.77;;;;;;;8.50;35.07;100039.78;12208350;19;20411;-79
2023/04/05 18:10:28;;;;;;;7.10;1.58;;;;;;;8.12;35.81;100053.69;12230214;19;20061;-79
2023/04/05 18:14:30;;;;;;;3.97;1.90;;;;;;;7.78;36.58;100047.72;12231323;19;20015;-79
2023/04/05 18:18:32;;;;;;;3.88;2.10;;;;;;;7.48;37.24;100055.81;12213484;19;20255;-80
2023/04/05 18:22:34;;;;;;;6.70;2.47;;;;;;;7.19;37.84;100052.63;12231250;19;20006;-79
2023/04/05 18:26:36;;;;;;;6.25;2.10;;;;;;;6.94;38.46;100060.00;12208864;19;20044;-79
2023/04/05 18:30:38;;;;;;;3.20;2.05;;;;;;;6.70;38.73;100061.59;12232899;19;20018;-79
2023/04/05 18:34:45;;;;;;;4.60;1.90;;;;;;;6.49;39.20;100069.06;12225497;19;20359;-79
2023/04/05 18:38:47;;;;;;;6.45;2.05;;;;;;;6.30;39.62;100067.22;12205031;19;20005;-79
2023/04/05 18:42:48;;;;;;;3.47;2.00;;;;;;;6.13;39.67;100072.34;12221959;19;20003;-79
2023/04/05 18:46:50;;;;;;;4.90;2.30;;;;;;;5.99;40.17;100076.16;12225394;19;20014;-79
2023/04/05 18:50:53;;;;;;;2.30;1.33;;;;;;;5.80;40.46;100073.22;12205440;19;20040;-79
2023/04/05 18:54:57;;;;;;;4.38;2.22;;;;;;;5.69;40.68;100077.44;12223357;19;20010;-80
2023/04/05 18:58:59;;;;;;;4.82;2.10;;;;;;;5.60;40.92;100078.69;12237169;19;20007;-79